Time;durP1;ratioP1;P1;durP2;ratioP2;P2;SDS_P1;SDS_P2;PMS_P1;PMS_P2;Temp;Humidity;BMP_temperature;BMP_pressure;BME280_temperature;BME280_humidity;BME280_pressure;Samples;Min_cycle;Max_cycle;Signal;HPM_P1;HPM_P2
2022/03/27 00:01:08;;;;;;;21.88;10.82;;;;;;;7.31;37.68;96078.56;5010463;28;20113;-66
2022/03/27 00:03:34;;;;;;;20.58;11.32;;;;;;;7.58;37.55;96128.13;5010524;28;20141;-66
2022/03/27 00:06:00;;;;;;;24.90;11.55;;;;;;;7.52;37.70;96124.03;5010208;28;20113;-66
2022/03/27 00:08:25;;;;;;;21.52;12.35;;;;;;;7.50;37.54;96120.69;5009960;28;20109;-66
2022/03/27 00:13:35;;;;;;;23.65;13.45;;;;;;;7.52;38.17;96125.75;5010511;28;20539;-65
2022/03/27 00:16:00;;;;;;;27.33;13.10;;;;;;;7.40;38.08;96111.63;5010047;28;20050;-67
2022/03/27 00:18:26;;;;;;;21.77;12.20;;;;;;;7.47;37.81;96122.50;5009024;28;20111;-66
2022/03/27 00:20:52;;;;;;;27.38;13.32;;;;;;;7.46;37.96;96108.00;5009549;28;20046;-67
2022/03/27 00:23:17;;;;;;;30.55;13.30;;;;;;;7.09;38.14;96069.00;5008792;28;20045;-69
2022/03/27 00:25:45;;;;;;;39.22;21.15;;;;;;;7.45;38.46;96112.28;5009909;28;20421;-69
2022/03/27 00:28:11;;;;;;;43.35;24.40;;;;;;;7.54;38.17;96122.28;5009789;28;20060;-66
2022/03/27 00:30:38;;;;;;;39.55;20.95;;;;;;;7.43;38.41;96114.09;5009958;28;20038;-68
2022/03/27 00:33:04;;;;;;;39.88;22.58;;;;;;;7.31;38.85;96117.03;5009737;28;20402;-69
2022/03/27 00:35:29;;;;;;;39.97;23.40;;;;;;;7.24;38.98;96111.28;5008389;28;20060;-67
2022/03/27 00:37:55;;;;;;;43.67;22.00;;;;;;;6.89;39.03;96074.78;5009627;28;20040;-68
2022/03/27 00:40:20;;;;;;;37.30;19.10;;;;;;;6.98;39.19;96117.22;5010175;28;20030;-66
2022/03/27 00:42:46;;;;;;;32.22;18.65;;;;;;;6.83;39.48;96108.28;5009830;28;20044;-66
2022/03/27 00:45:11;;;;;;;29.85;17.15;;;;;;;6.40;39.85;96046.34;5009052;28;20313;-68
2022/03/27 00:47:38;;;;;;;30.40;15.57;;;;;;;6.46;39.57;96070.97;5009430;28;20156;-66
2022/03/27 00:50:04;;;;;;;28.60;16.08;;;;;;;6.48;40.36;96083.72;5009174;28;20036;-67
2022/03/27 00:52:29;;;;;;;30.00;16.85;;;;;;;6.42;40.08;96090.69;5009206;28;20111;-67
2022/03/27 00:54:56;;;;;;;28.52;15.98;;;;;;;6.47;40.24;96094.88;5009374;28;20037;-66
2022/03/27 00:57:22;;;;;;;30.25;16.70;;;;;;;6.48;40.67;96092.25;5009116;28;20049;-66
2022/03/27 00:59:47;;;;;;;29.98;15.02;;;;;;;6.36;40.66;96079.78;5009416;28;20030;-64
2022/03/27 01:02:13;;;;;;;26.88;14.38;;;;;;;6.35;40.58;96085.81;5009137;28;20485;-66
2022/03/27 01:04:45;;;;;;;22.98;13.15;;;;;;;6.05;40.57;96055.06;5009376;28;20068;-65
2022/03/27 01:07:20;;;;;;;19.45;12.32;;;;;;;5.80;40.45;96012.22;5009173;28;20212;-64
2022/03/27 01:09:46;;;;;;;24.13;12.05;;;;;;;6.12;40.75;96069.38;5008963;28;20053;-68
2022/03/27 01:12:18;;;;;;;25.23;12.32;;;;;;;6.15;40.89;96079.53;5009511;28;20026;-66
2022/03/27 01:14:44;;;;;;;20.95;11.77;;;;;;;6.11;40.60;96080.50;5009377;28;20701;-66
2022/03/27 01:17:13;;;;;;;18.02;10.98;;;;;;;6.10;41.08;96075.41;5009390;28;20026;-65
2022/03/27 01:19:44;;;;;;;20.38;10.85;;;;;;;6.05;40.59;96081.53;5008512;28;20038;-66
2022/03/27 01:22:10;;;;;;;25.17;11.40;;;;;;;6.07;40.69;96086.59;5009244;28;20069;-66
2022/03/27 01:24:36;;;;;;;21.10;9.82;;;;;;;5.84;40.89;96057.31;5009108;28;20057;-67
2022/03/27 01:27:01;;;;;;;20.30;11.30;;;;;;;6.03;40.52;96087.56;5008582;28;20473;-66
2022/03/27 01:29:27;;;;;;;19.85;11.07;;;;;;;5.73;40.98;96050.84;5008298;28;20132;-66
2022/03/27 01:31:53;;;;;;;20.10;10.48;;;;;;;5.94;41.35;96085.25;5008357;28;20103;-67
2022/03/27 01:34:19;;;;;;;20.73;9.88;;;;;;;5.89;41.08;96067.44;5008572;28;20054;-65
2022/03/27 01:36:45;;;;;;;20.90;11.40;;;;;;;5.70;41.09;96041.50;5008969;28;20064;-66
2022/03/27 01:39:13;;;;;;;20.58;10.90;;;;;;;5.98;41.05;96082.56;5007202;28;20129;-67
2022/03/27 01:41:39;;;;;;;22.58;11.68;;;;;;;5.88;41.18;96076.00;5008574;28;20026;-67
2022/03/27 01:44:07;;;;;;;24.40;11.68;;;;;;;5.70;41.28;96056.88;5008380;28;20049;-67
2022/03/27 01:46:35;;;;;;;19.15;11.23;;;;;;;5.75;41.84;96084.91;5008967;28;20057;-65
2022/03/27 01:49:02;;;;;;;24.73;12.18;;;;;;;5.74;41.92;96090.88;5008242;28;20021;-67
2022/03/27 01:51:28;;;;;;;23.40;10.77;;;;;;;5.46;42.38;96050.66;5008297;28;20162;-66
2022/03/27 01:53:55;;;;;;;18.13;10.65;;;;;;;5.59;41.85;96079.34;5008301;28;20083;-65
2022/03/27 01:56:20;;;;;;;18.75;10.43;;;;;;;5.28;42.07;96040.06;5008396;28;20489;-67
2022/03/27 01:58:46;;;;;;;19.88;11.20;;;;;;;5.24;42.62;96030.78;5008178;28;20061;-66
2022/03/27 02:01:11;;;;;;;20.58;10.52;;;;;;;5.56;42.09;96087.94;5006879;28;20064;-64
2022/03/27 02:03:37;;;;;;;20.45;11.57;;;;;;;5.43;42.29;96074.63;5008711;28;20037;-66
2022/03/27 02:06:05;;;;;;;23.00;12.52;;;;;;;5.44;43.01;96078.84;5008180;28;20033;-67
2022/03/27 02:08:32;;;;;;;18.13;11.55;;;;;;;5.47;42.66;96096.69;5007829;28;20314;-66
2022/03/27 02:10:57;;;;;;;22.50;12.63;;;;;;;5.44;43.08;96086.53;5008357;28;20088;-66
2022/03/27 02:13:23;;;;;;;21.48;11.90;;;;;;;5.37;43.73;96085.00;5007536;28;20038;-65
2022/03/27 02:15:49;;;;;;;23.35;12.38;;;;;;;5.38;43.43;96086.69;5007840;28;20493;-65
2022/03/27 02:18:16;;;;;;;20.38;11.18;;;;;;;5.45;43.84;96084.81;5008062;28;20464;-67
2022/03/27 02:20:44;;;;;;;22.70;12.43;;;;;;;5.38;43.41;96091.81;5006960;28;20034;-69
2022/03/27 02:23:12;;;;;;;22.52;12.05;;;;;;;5.15;43.46;96059.97;5008183;28;20531;-68
2022/03/27 02:25:38;;;;;;;20.17;11.50;;;;;;;5.13;43.83;96058.31;5008267;28;20057;-68
2022/03/27 02:28:04;;;;;;;18.38;11.02;;;;;;;5.28;43.98;96083.53;5007801;28;20405;-68
2022/03/27 02:30:30;;;;;;;23.08;12.48;;;;;;;5.40;43.23;96102.00;5008151;28;20017;-68
2022/03/27 02:32:56;;;;;;;27.73;12.90;;;;;;;5.26;43.69;96075.06;5007296;28;20045;-70
2022/03/27 02:35:22;;;;;;;19.45;11.85;;;;;;;5.30;43.79;96081.78;5007878;28;20017;-67
2022/03/27 02:37:48;;;;;;;23.08;12.00;;;;;;;5.41;43.88;96103.66;5007488;28;20030;-68
2022/03/27 02:40:13;;;;;;;22.05;12.75;;;;;;;5.04;44.08;96035.56;5007831;28;20034;-68
2022/03/27 02:42:39;;;;;;;22.00;12.70;;;;;;;5.48;44.54;96100.09;5008336;28;20022;-68
2022/03/27 02:45:05;;;;;;;23.98;12.10;;;;;;;5.45;44.65;96084.81;5006248;28;20033;-67
2022/03/27 02:47:32;;;;;;;20.20;11.70;;;;;;;5.51;43.86;96095.75;5007061;28;20030;-68
2022/03/27 02:49:57;;;;;;;24.55;12.23;;;;;;;5.16;44.10;96055.69;5007934;28;20104;-66
2022/03/27 02:52:23;;;;;;;26.48;13.18;;;;;;;5.38;44.19;96086.69;5007145;28;20133;-67
2022/03/27 02:54:48;;;;;;;21.38;12.52;;;;;;;5.12;44.96;96044.72;5007237;28;20025;-67
2022/03/27 02:57:15;;;;;;;22.73;12.05;;;;;;;5.30;44.39;96073.28;5006721;28;20054;-65
2022/03/27 02:59:41;;;;;;;23.40;12.13;;;;;;;5.32;44.65;96074.88;5007793;28;20030;-67
2022/03/27 03:02:07;;;;;;;24.98;12.90;;;;;;;5.59;44.88;96112.59;5007938;28;20033;-68
2022/03/27 03:04:34;;;;;;;19.98;13.07;;;;;;;5.55;44.42;96116.13;5007503;28;20125;-68
2022/03/27 03:07:00;;;;;;;22.77;13.52;;;;;;;5.47;44.47;96124.81;5007094;28;20092;-67
2022/03/27 03:09:26;;;;;;;21.80;12.02;;;;;;;5.25;44.71;96093.00;5007030;28;20101;-66
2022/03/27 03:11:52;;;;;;;21.23;12.88;;;;;;;5.39;45.05;96113.94;5007771;28;20053;-67
2022/03/27 03:14:17;;;;;;;23.40;12.27;;;;;;;5.30;45.10;96121.88;5007545;28;20089;-68
2022/03/27 03:16:44;;;;;;;25.88;13.25;;;;;;;4.97;45.86;96080.91;5007162;28;20026;-65
2022/03/27 03:19:10;;;;;;;25.77;13.57;;;;;;;5.21;45.44;96122.06;5007542;28;20536;-66
2022/03/27 03:21:35;;;;;;;20.58;11.48;;;;;;;5.20;45.42;96123.81;5006935;28;20050;-66
2022/03/27 03:24:01;;;;;;;22.80;12.45;;;;;;;5.15;45.86;96125.63;5007734;28;20164;-67
2022/03/27 03:26:26;;;;;;;24.83;12.35;;;;;;;5.07;45.89;96123.25;5007691;28;20042;-66
2022/03/27 03:28:52;;;;;;;21.20;12.60;;;;;;;4.74;46.23;96094.22;5007985;28;20500;-65
2022/03/27 03:31:17;;;;;;;21.00;11.82;;;;;;;4.82;46.44;96123.00;5007772;28;20025;-66
2022/03/27 03:33:42;;;;;;;24.80;12.50;;;;;;;4.84;45.87;96113.56;5009602;28;20377;-65
2022/03/27 03:36:08;;;;;;;18.63;10.70;;;;;;;4.88;45.76;96120.28;5010471;28;20022;-67
2022/03/27 03:38:34;;;;;;;23.77;11.68;;;;;;;4.88;45.75;96119.44;5010963;28;20041;-67
2022/03/27 03:40:59;;;;;;;18.80;11.93;;;;;;;4.59;46.50;96095.38;5010986;28;20030;-67
2022/03/27 03:43:25;;;;;;;19.77;11.13;;;;;;;4.65;46.50;96110.56;5011387;28;20116;-67
2022/03/27 03:45:51;;;;;;;20.45;11.40;;;;;;;4.47;46.60;96076.06;5010862;28;20034;-69
2022/03/27 03:48:17;;;;;;;23.00;11.40;;;;;;;4.70;46.36;96107.91;5010507;28;20038;-65
2022/03/27 03:50:43;;;;;;;22.50;12.13;;;;;;;4.77;46.60;96128.19;5011008;28;20045;-67
2022/03/27 03:53:08;;;;;;;21.80;13.00;;;;;;;4.76;47.56;96133.34;5010777;28;20042;-67
2022/03/27 03:55:34;;;;;;;20.38;12.60;;;;;;;4.53;47.46;96088.69;5011313;28;20165;-66
2022/03/27 03:58:01;;;;;;;24.15;12.30;;;;;;;4.58;47.47;96097.09;5010565;28;20080;-65
2022/03/27 04:00:27;;;;;;;28.17;13.63;;;;;;;4.62;47.61;96107.25;5011016;28;20607;-66
2022/03/27 04:02:53;;;;;;;23.30;11.38;;;;;;;4.46;47.92;96078.63;5009859;28;20072;-68
2022/03/27 04:05:18;;;;;;;22.25;12.68;;;;;;;4.90;47.18;96133.88;5011060;28;20045;-66
2022/03/27 04:07:44;;;;;;;23.08;13.10;;;;;;;4.97;47.44;96137.97;5010213;28;20026;-69
2022/03/27 04:10:10;;;;;;;26.35;15.13;;;;;;;4.96;47.44;96135.44;5010677;28;20455;-67
2022/03/27 04:12:35;;;;;;;23.92;13.40;;;;;;;4.83;47.47;96124.66;5010611;28;20026;-67
2022/03/27 04:15:01;;;;;;;23.55;13.48;;;;;;;4.94;47.37;96149.97;5010654;28;20026;-69
2022/03/27 04:17:26;;;;;;;26.00;13.13;;;;;;;4.78;47.92;96134.13;5010370;28;20033;-68
2022/03/27 04:19:52;;;;;;;21.58;13.75;;;;;;;4.85;47.52;96150.19;5010405;28;20060;-67
2022/03/27 04:22:17;;;;;;;26.65;14.32;;;;;;;4.88;47.49;96152.66;5010550;28;20042;-67
2022/03/27 04:24:44;;;;;;;23.55;14.00;;;;;;;4.73;47.59;96139.34;5010673;28;20065;-65
2022/03/27 04:27:10;;;;;;;24.08;13.77;;;;;;;4.81;47.60;96130.69;5010347;28;20033;-65
2022/03/27 04:29:35;;;;;;;23.58;14.20;;;;;;;4.89;48.07;96160.31;5010037;28;20172;-64
2022/03/27 04:32:01;;;;;;;24.13;14.40;;;;;;;4.94;48.01;96163.59;5010007;28;20033;-66
2022/03/27 04:34:26;;;;;;;26.65;14.85;;;;;;;4.91;48.06;96155.16;5010063;28;20033;-69
2022/03/27 04:36:53;;;;;;;24.73;14.88;;;;;;;4.82;48.61;96163.88;5010244;28;20026;-67
2022/03/27 04:39:19;;;;;;;27.38;14.57;;;;;;;4.68;48.89;96158.22;5009907;28;20034;-66
2022/03/27 04:41:46;;;;;;;27.35;13.07;;;;;;;4.75;48.94;96180.19;5010799;28;20108;-68
2022/03/27 04:44:12;;;;;;;28.50;16.13;;;;;;;4.71;49.26;96181.16;5003771;28;20054;-68
2022/03/27 04:46:37;;;;;;;30.10;15.65;;;;;;;4.47;48.90;96142.47;5005625;28;20168;-69
2022/03/27 04:49:03;;;;;;;25.70;15.52;;;;;;;4.76;48.86;96184.44;5009729;28;20321;-65
2022/03/27 04:51:29;;;;;;;29.17;15.48;;;;;;;4.44;48.66;96132.31;5008333;28;20504;-70
2022/03/27 04:53:54;;;;;;;26.90;15.95;;;;;;;4.84;48.37;96184.25;5009898;28;20224;-69
2022/03/27 04:56:20;;;;;;;30.67;16.80;;;;;;;4.94;48.36;96188.31;5009741;28;20030;-68
2022/03/27 04:58:45;;;;;;;25.73;16.70;;;;;;;5.00;47.97;96197.56;5010049;28;20409;-65
2022/03/27 05:01:11;;;;;;;24.48;15.18;;;;;;;4.85;47.52;96165.50;5009854;28;20026;-65
2022/03/27 05:03:37;;;;;;;25.02;13.88;;;;;;;5.12;47.48;96199.84;5009793;28;20041;-65
2022/03/27 05:06:03;;;;;;;21.85;14.23;;;;;;;5.18;46.97;96191.19;5009881;28;20044;-64
2022/03/27 05:08:28;;;;;;;20.05;13.43;;;;;;;5.31;46.21;96196.00;5009229;28;20026;-64
2022/03/27 05:10:56;;;;;;;24.85;13.95;;;;;;;5.27;46.32;96181.59;5009832;28;20048;-65
2022/03/27 05:13:22;;;;;;;21.83;13.35;;;;;;;5.33;46.71;96201.09;5009628;28;20030;-66
2022/03/27 05:15:48;;;;;;;20.52;11.75;;;;;;;5.37;46.31;96205.22;5008821;28;20036;-65
2022/03/27 05:18:13;;;;;;;25.52;11.88;;;;;;;5.18;45.91;96138.31;5009463;28;20050;-65
2022/03/27 05:20:41;;;;;;;22.27;11.00;;;;;;;5.52;45.78;96181.00;5008892;28;20068;-66
2022/03/27 05:23:08;;;;;;;23.63;12.27;;;;;;;5.01;44.96;96079.09;5008947;28;20034;-65
2022/03/27 05:25:40;;;;;;;18.23;11.85;;;;;;;5.49;44.87;96165.72;5008579;28;20034;-66
2022/03/27 05:28:07;;;;;;;17.33;10.55;;;;;;;5.41;44.87;96134.38;5009343;28;20044;-66
2022/03/27 05:30:33;;;;;;;19.70;11.05;;;;;;;5.67;45.14;96183.19;5008669;28;20121;-68
2022/03/27 05:32:58;;;;;;;20.40;12.02;;;;;;;5.07;45.10;96079.78;5009206;28;20129;-66
2022/03/27 05:35:24;;;;;;;19.88;11.15;;;;;;;5.73;44.63;96161.72;5009107;28;20022;-66
2022/03/27 05:37:50;;;;;;;16.50;10.90;;;;;;;6.16;43.87;96211.81;5008909;28;20022;-66
2022/03/27 05:40:18;;;;;;;21.00;12.25;;;;;;;6.24;43.83;96216.75;5009058;28;20053;-67
2022/03/27 05:42:44;;;;;;;25.30;13.75;;;;;;;6.16;43.72;96183.66;5009629;28;20412;-66
2022/03/27 05:45:11;;;;;;;27.83;15.95;;;;;;;6.64;43.45;96213.13;5008255;28;20040;-66
2022/03/27 05:47:41;;;;;;;23.63;13.20;;;;;;;5.80;42.80;96060.84;5007247;28;20037;-66
2022/03/27 05:50:08;;;;;;;22.58;13.23;;;;;;;6.75;42.26;96193.09;5008739;28;20073;-65
2022/03/27 05:52:34;;;;;;;23.73;15.07;;;;;;;6.74;42.13;96194.00;5008176;28;20042;-66
2022/03/27 05:54:59;;;;;;;23.55;16.55;;;;;;;6.78;42.47;96187.91;5008190;28;20032;-68
2022/03/27 05:57:26;;;;;;;32.55;17.38;;;;;;;7.01;42.22;96214.59;5007788;28;20038;-66
2022/03/27 05:59:51;;;;;;;26.58;16.17;;;;;;;7.10;41.64;96209.19;5008837;28;20037;-66
2022/03/27 06:02:16;;;;;;;26.15;17.52;;;;;;;7.14;41.89;96200.50;5008745;28;20038;-68
2022/03/27 06:04:42;;;;;;;24.08;16.60;;;;;;;7.07;41.81;96193.91;5008846;28;20029;-65
2022/03/27 06:07:09;;;;;;;28.80;18.48;;;;;;;7.18;41.92;96209.81;5008742;28;20033;-66
2022/03/27 06:09:35;;;;;;;28.58;17.13;;;;;;;6.98;41.76;96173.66;5008212;28;20469;-65
2022/03/27 06:12:01;;;;;;;35.60;18.08;;;;;;;7.10;41.37;96183.53;5010578;28;20058;-67
2022/03/27 06:14:27;;;;;;;26.35;17.08;;;;;;;7.24;41.04;96192.53;5003895;28;20040;-67
2022/03/27 06:16:52;;;;;;;27.08;18.60;;;;;;;7.36;41.14;96216.09;5006352;28;20095;-64
2022/03/27 06:19:18;;;;;;;28.40;17.98;;;;;;;7.38;41.40;96223.75;5008140;28;20034;-66
2022/03/27 06:21:46;;;;;;;29.77;16.77;;;;;;;7.57;40.64;96220.59;4999801;28;20038;-65
2022/03/27 06:24:12;;;;;;;30.02;19.23;;;;;;;7.60;40.43;96223.06;4988782;28;20057;-66
2022/03/27 06:26:39;;;;;;;30.23;18.55;;;;;;;6.92;40.67;96125.09;4987567;28;20073;-64
2022/03/27 06:29:04;;;;;;;34.28;20.42;;;;;;;7.62;40.50;96223.84;5003810;28;20125;-66
2022/03/27 06:31:30;;;;;;;31.98;19.20;;;;;;;7.65;40.00;96190.38;5008185;28;20088;-64
2022/03/27 06:33:56;;;;;;;27.88;17.42;;;;;;;7.71;40.25;96210.72;5007687;28;20022;-68
2022/03/27 06:36:21;;;;;;;30.75;20.55;;;;;;;8.00;39.65;96209.75;5007023;28;20032;-67
2022/03/27 06:38:48;;;;;;;28.35;19.65;;;;;;;8.08;39.35;96215.47;5005309;28;20520;-64
2022/03/27 06:41:14;;;;;;;33.63;17.67;;;;;;;7.89;39.22;96169.03;5005765;28;20034;-67
2022/03/27 06:43:39;;;;;;;28.90;19.33;;;;;;;8.15;39.28;96210.09;5006900;28;20089;-64
2022/03/27 06:46:06;;;;;;;26.05;18.30;;;;;;;8.29;38.90;96213.88;5005709;28;20025;-65
2022/03/27 06:48:32;;;;;;;28.30;17.45;;;;;;;8.24;38.52;96195.22;5006363;28;20053;-65
2022/03/27 06:50:58;;;;;;;30.30;18.58;;;;;;;8.51;38.10;96212.31;5004285;28;20493;-65
2022/03/27 06:53:24;;;;;;;30.33;18.88;;;;;;;8.76;37.89;96220.00;5006156;28;20034;-64
2022/03/27 06:55:51;;;;;;;29.90;16.85;;;;;;;8.89;37.93;96220.41;5002697;28;20033;-67
2022/03/27 06:58:17;;;;;;;27.70;18.35;;;;;;;8.66;37.66;96168.06;5002103;28;20061;-65
2022/03/27 07:03:27;;;;;;;31.90;18.33;;;;;;;8.88;37.43;96170.66;4998859;28;20570;-64
2022/03/27 07:05:53;;;;;;;31.65;18.73;;;;;;;9.33;36.75;96218.69;4996620;28;20030;-65
2022/03/27 07:08:20;;;;;;;25.17;16.23;;;;;;;9.36;37.15;96221.16;5006534;28;20033;-64
2022/03/27 07:10:48;;;;;;;30.80;17.25;;;;;;;9.53;36.26;96224.81;5000946;28;20034;-70
2022/03/27 07:13:15;;;;;;;28.42;16.63;;;;;;;9.60;35.78;96227.97;5001970;28;20042;-63
2022/03/27 07:15:42;;;;;;;26.70;16.90;;;;;;;9.66;36.28;96225.16;5001072;28;20100;-66
2022/03/27 07:18:08;;;;;;;25.92;16.40;;;;;;;9.74;36.63;96223.94;4999419;28;20045;-67
2022/03/27 07:20:40;;;;;;;26.45;16.00;;;;;;;9.88;35.30;96215.63;4993557;28;20044;-66
2022/03/27 07:23:10;;;;;;;29.05;17.30;;;;;;;9.70;35.13;96175.19;5000999;28;20484;-68
2022/03/27 07:25:38;;;;;;;26.13;16.55;;;;;;;9.80;36.25;96171.31;5000204;28;20045;-70
2022/03/27 07:28:04;;;;;;;23.95;15.00;;;;;;;10.23;37.02;96208.19;5000374;28;20025;-63
2022/03/27 07:30:30;;;;;;;25.05;16.08;;;;;;;10.36;35.45;96211.09;4994002;28;20037;-66
2022/03/27 07:32:57;;;;;;;26.60;16.23;;;;;;;10.61;34.88;96207.47;4998414;28;20053;-64
2022/03/27 07:35:23;;;;;;;24.35;16.42;;;;;;;10.37;34.79;96145.72;4995169;28;20121;-65
2022/03/27 07:37:52;;;;;;;27.75;17.63;;;;;;;10.93;33.90;96200.03;4999297;28;20496;-66
2022/03/27 07:40:18;;;;;;;23.48;16.02;;;;;;;11.06;33.68;96184.81;5005417;28;20089;-65
2022/03/27 07:42:49;;;;;;;29.58;17.58;;;;;;;11.00;33.65;96160.09;4999447;28;20430;-63
2022/03/27 07:45:18;;;;;;;27.40;17.27;;;;;;;11.42;33.60;96187.41;5004849;28;20465;-66
2022/03/27 07:47:44;;;;;;;25.00;15.93;;;;;;;11.58;33.40;96195.25;4999008;28;20041;-68
2022/03/27 07:50:11;;;;;;;29.75;15.73;;;;;;;11.31;32.91;96135.44;4991685;28;20065;-64
2022/03/27 07:52:38;;;;;;;24.38;15.55;;;;;;;11.78;33.05;96187.38;4989587;28;20145;-66
2022/03/27 07:55:05;;;;;;;26.05;16.25;;;;;;;11.97;32.74;96190.81;4992348;28;20072;-63
2022/03/27 07:57:31;;;;;;;27.00;17.08;;;;;;;11.99;32.01;96156.25;4991456;28;20041;-64
2022/03/27 07:59:56;;;;;;;31.85;18.05;;;;;;;12.24;32.25;96184.25;4990369;28;20454;-67
2022/03/27 08:02:22;;;;;;;28.77;16.20;;;;;;;12.41;32.41;96169.63;4991410;28;20125;-64
2022/03/27 08:04:48;;;;;;;25.17;15.00;;;;;;;12.25;31.85;96110.94;5000223;28;20040;-65
2022/03/27 08:07:14;;;;;;;25.65;15.38;;;;;;;12.73;31.50;96157.59;5005250;28;20022;-65
2022/03/27 08:09:40;;;;;;;26.30;16.88;;;;;;;12.98;31.53;96175.22;4998225;28;20493;-65
2022/03/27 08:12:09;;;;;;;36.40;16.63;;;;;;;13.10;31.36;96168.56;5006055;28;20026;-64
2022/03/27 08:14:39;;;;;;;21.77;13.52;;;;;;;13.31;30.11;96161.34;4996939;28;20506;-66
2022/03/27 08:17:05;;;;;;;22.48;13.65;;;;;;;13.63;29.14;96158.72;5006632;28;20100;-65
2022/03/27 08:19:32;;;;;;;15.07;9.82;;;;;;;13.84;28.28;96159.25;4999543;28;20029;-63
2022/03/27 08:21:58;;;;;;;18.13;10.50;;;;;;;13.89;27.66;96127.88;5005702;28;20042;-65
2022/03/27 08:24:23;;;;;;;18.33;10.85;;;;;;;14.03;27.34;96125.28;5001518;28;20119;-68
2022/03/27 08:26:55;;;;;;;17.58;11.65;;;;;;;14.29;26.39;96128.09;5003416;28;20540;-62
2022/03/27 08:29:29;;;;;;;20.25;11.75;;;;;;;14.60;26.00;96139.25;4999582;28;20103;-67
2022/03/27 08:31:56;;;;;;;13.93;9.68;;;;;;;14.78;25.90;96138.13;4997704;28;20030;-64
2022/03/27 08:34:25;;;;;;;16.88;10.02;;;;;;;14.75;27.80;96111.53;4989350;28;20022;-69
2022/03/27 08:36:51;;;;;;;18.05;11.13;;;;;;;14.78;29.69;96052.44;4993622;28;20031;-63
2022/03/27 08:39:18;;;;;;;17.50;10.77;;;;;;;15.56;27.39;96126.28;4992204;28;20044;-67
2022/03/27 08:41:44;;;;;;;20.83;12.75;;;;;;;15.76;26.76;96130.22;4999509;28;20813;-62
2022/03/27 08:44:12;;;;;;;23.00;12.25;;;;;;;16.05;27.64;96130.03;4991480;28;20061;-62
2022/03/27 08:46:40;;;;;;;23.05;12.73;;;;;;;16.26;27.96;96117.34;4989932;28;20041;-71
2022/03/27 08:49:18;;;;;;;19.67;10.63;;;;;;;16.26;25.66;96099.13;4992313;28;20034;-75
2022/03/27 08:51:58;;;;;;;19.58;12.30;;;;;;;16.40;24.63;96112.03;4998798;28;20129;-72
2022/03/27 08:54:26;;;;;;;17.70;10.80;;;;;;;15.93;23.82;96080.50;5002266;28;20037;-66
2022/03/27 08:57:44;;;;;;;17.25;12.15;;;;;;;16.12;23.98;96128.72;4993535;28;20164;-64
2022/03/27 09:00:11;;;;;;;20.17;12.07;;;;;;;16.09;23.67;96119.31;4989510;28;20055;-67
2022/03/27 09:02:38;;;;;;;26.15;15.23;;;;;;;16.15;23.53;96125.88;4985412;28;20723;-65
2022/03/27 09:05:04;;;;;;;21.13;12.75;;;;;;;15.94;22.85;96116.00;4993873;28;20046;-67
2022/03/27 09:07:30;;;;;;;19.92;12.35;;;;;;;15.98;22.63;96083.63;4978153;28;20129;-67
2022/03/27 09:09:58;;;;;;;23.58;13.93;;;;;;;18.49;20.44;96116.88;4999265;28;20128;-68
2022/03/27 09:12:24;;;;;;;23.13;13.15;;;;;;;19.51;18.78;96082.69;4985797;28;20042;-68
2022/03/27 09:14:50;;;;;;;22.88;13.68;;;;;;;21.88;16.91;96085.06;4995410;28;20049;-67
2022/03/27 09:17:16;;;;;;;23.60;13.82;;;;;;;23.16;15.11;96095.97;4985135;28;20126;-64
2022/03/27 09:19:47;;;;;;;20.67;14.57;;;;;;;24.76;14.06;96085.34;4978966;28;20050;-67
2022/03/27 09:22:17;;;;;;;21.17;13.77;;;;;;;24.86;14.16;96096.59;4970506;28;20609;-67
2022/03/27 09:24:47;;;;;;;23.80;14.60;;;;;;;25.99;13.16;96040.66;4996015;28;20048;-69
2022/03/27 09:27:16;;;;;;;19.55;14.20;;;;;;;27.30;12.13;96088.81;4986678;28;20524;-68
2022/03/27 09:30:06;;;;;;;19.45;12.32;;;;;;;26.79;11.98;96105.09;4999697;28;20125;-67
2022/03/27 09:32:44;;;;;;;18.50;13.40;;;;;;;26.70;12.57;96084.97;4989713;28;20086;-65
2022/03/27 09:35:15;;;;;;;21.60;14.85;;;;;;;27.95;11.16;96078.78;4996426;28;20181;-68
2022/03/27 09:37:43;;;;;;;19.58;13.60;;;;;;;26.27;12.35;96101.09;4989675;28;20088;-67
2022/03/27 09:40:10;;;;;;;19.65;13.85;;;;;;;27.90;11.63;96060.72;4991574;28;20026;-68
2022/03/27 09:42:38;;;;;;;22.35;14.35;;;;;;;28.96;10.68;96069.41;4994114;28;20049;-68
2022/03/27 09:45:23;;;;;;;21.67;13.90;;;;;;;27.89;11.48;96080.25;5008464;28;20037;-69
2022/03/27 09:47:50;;;;;;;19.58;14.68;;;;;;;27.58;11.60;96089.16;5003169;28;20381;-68
2022/03/27 09:50:39;;;;;;;23.42;14.45;;;;;;;28.11;10.91;96070.66;4999747;28;20045;-68
2022/03/27 09:53:30;;;;;;;20.52;13.38;;;;;;;29.40;9.91;96088.06;5007378;28;20478;-67
2022/03/27 09:55:59;;;;;;;19.13;13.57;;;;;;;28.67;10.58;96075.56;5007964;28;20034;-69
2022/03/27 09:58:44;;;;;;;17.25;13.27;;;;;;;29.24;9.75;96010.28;5008305;28;20116;-67
2022/03/27 10:01:17;;;;;;;17.33;11.82;;;;;;;30.18;9.41;96070.38;5006659;28;20513;-70
2022/03/27 10:04:04;;;;;;;18.67;12.90;;;;;;;30.62;8.90;96067.63;5008011;28;20085;-70
2022/03/27 10:06:33;;;;;;;18.42;13.18;;;;;;;30.33;9.03;96083.56;5008117;28;20091;-71
2022/03/27 10:09:01;;;;;;;17.17;11.55;;;;;;;31.16;8.50;96061.50;5007525;28;20034;-70
2022/03/27 10:11:27;;;;;;;18.02;13.73;;;;;;;31.84;8.41;96041.94;5008219;28;20037;-70
2022/03/27 10:13:54;;;;;;;18.58;13.20;;;;;;;31.19;8.41;96042.47;5008234;28;20026;-67
2022/03/27 10:16:32;;;;;;;16.27;11.50;;;;;;;30.03;8.65;96064.34;5007817;28;20029;-71
2022/03/27 10:19:03;;;;;;;16.67;11.48;;;;;;;28.85;9.53;96021.28;5008066;28;20038;-71
2022/03/27 10:21:29;;;;;;;18.77;12.38;;;;;;;29.06;9.52;96008.03;5007538;28;20099;-71
2022/03/27 10:24:15;;;;;;;20.70;12.30;;;;;;;31.27;8.62;96023.63;5008076;28;20037;-69
2022/03/27 10:26:43;;;;;;;20.42;12.73;;;;;;;32.74;7.33;96017.38;5007553;28;20109;-70
2022/03/27 10:29:10;;;;;;;15.45;12.23;;;;;;;34.06;6.63;96017.59;5007616;28;20054;-71
2022/03/27 10:31:36;;;;;;;18.23;12.75;;;;;;;35.00;6.35;96021.13;5007352;28;20102;-66
2022/03/27 10:34:05;;;;;;;18.67;12.77;;;;;;;35.15;6.40;95933.09;5007261;28;20040;-71
2022/03/27 10:36:59;;;;;;;16.02;11.45;;;;;;;35.38;5.90;96042.25;5007542;28;20480;-70
2022/03/27 10:39:44;;;;;;;17.35;11.32;;;;;;;34.40;6.27;96046.72;5007637;28;20223;-70
2022/03/27 10:42:37;;;;;;;14.32;10.75;;;;;;;32.49;6.70;96039.44;5007306;28;20044;-69
2022/03/27 10:45:06;;;;;;;14.73;10.70;;;;;;;34.17;6.44;96023.25;5007118;28;20113;-69
2022/03/27 10:47:32;;;;;;;19.70;11.53;;;;;;;35.15;6.05;96027.69;5006278;28;20034;-71
2022/03/27 10:50:00;;;;;;;21.67;11.85;;;;;;;35.04;5.88;96024.97;5007366;28;20283;-67
2022/03/27 10:52:26;;;;;;;14.60;10.82;;;;;;;35.98;5.98;96025.25;5005795;28;20065;-70
2022/03/27 10:55:06;;;;;;;18.35;11.88;;;;;;;34.66;6.18;96018.81;5008035;28;20388;-69
2022/03/27 10:57:37;;;;;;;16.05;10.80;;;;;;;33.63;6.57;96009.47;5006970;28;20080;-70
2022/03/27 11:00:06;;;;;;;13.75;10.25;;;;;;;34.69;6.04;96025.59;5007336;28;20029;-68
2022/03/27 11:02:59;;;;;;;13.85;9.82;;;;;;;35.09;6.08;96009.03;5007546;28;20489;-68
2022/03/27 11:05:36;;;;;;;18.25;12.45;;;;;;;35.50;6.03;96015.47;5007365;28;20031;-69
2022/03/27 11:08:16;;;;;;;15.32;10.50;;;;;;;36.07;5.23;96014.97;5006813;28;20105;-65
2022/03/27 11:10:59;;;;;;;17.55;11.18;;;;;;;35.73;5.61;96009.31;5006903;28;20022;-68
2022/03/27 11:13:30;;;;;;;16.42;10.70;;;;;;;36.55;5.12;95997.81;5007268;28;20671;-67
2022/03/27 11:16:15;;;;;;;17.48;10.98;;;;;;;35.02;5.78;95994.91;5005845;28;20120;-68
2022/03/27 11:18:43;;;;;;;12.98;8.90;;;;;;;35.14;5.13;96001.13;5006898;28;20509;-67
2022/03/27 11:21:12;;;;;;;21.65;11.50;;;;;;;35.40;5.39;95973.13;5007021;28;20049;-67
2022/03/27 11:23:39;;;;;;;19.70;12.87;;;;;;;36.20;5.23;95995.94;5007617;28;20030;-68
2022/03/27 11:26:27;;;;;;;12.60;9.07;;;;;;;32.86;6.35;95999.69;5007445;28;20046;-68
2022/03/27 11:28:56;;;;;;;18.63;13.10;;;;;;;33.14;6.79;95987.78;5008955;28;20042;-67
2022/03/27 11:31:31;;;;;;;17.00;13.40;;;;;;;34.29;6.05;95906.41;5007491;28;20060;-68
2022/03/27 11:34:02;;;;;;;21.73;15.98;;;;;;;35.45;5.57;95991.22;5006595;28;20122;-68